This is the latest recevied weather packets stored in our database for station/object F4LNO-10. If no packets are shown the sender has not sent any weather packets the latest 1 day(s).
| Time | Temp. | Humidity | Pressure | Rain* | Wind** | Luminosity | Snow |
|---|---|---|---|---|---|---|---|
| 1778043077 | 21.11° C | 67% | 1008.8 hPa | - | - | - | - |
| 1778042176 | 21.11° C | 67% | 1008.6 hPa | - | - | - | - |
| 1778040375 | 21.67° C | 66% | 1008.9 hPa | - | - | - | - |
| 1778039474 | 21.67° C | 66% | 1008.8 hPa | - | - | - | - |
| 1778038573 | 21.11° C | 67% | 1008.9 hPa | - | - | - | - |
| 1778037672 | 21.67° C | 68% | 1009 hPa | - | - | - | - |
| 1778034970 | 21.67° C | 68% | 1009.6 hPa | - | - | - | - |
| 1778034069 | 21.67° C | 67% | 1009.4 hPa | - | - | - | - |
| 1778033168 | 21.67° C | 68% | 1009.6 hPa | - | - | - | - |
| 1778032267 | 21.67° C | 67% | 1009.3 hPa | - | - | - | - |
| 1778031385 | 21.67° C | 69% | 1009 hPa | - | - | - | - |
| 1778030484 | 21.67° C | 69% | 1008.8 hPa | - | - | - | - |
| 1778028683 | 19.44° C | 78% | 1009.5 hPa | - | - | - | - |
| 1778027782 | 19.44° C | 76% | 1009.6 hPa | - | - | - | - |
| 1778026881 | 19.44° C | 77% | 1009.8 hPa | - | - | - | - |
| 1778022377 | 21.67° C | 71% | 1011.3 hPa | - | - | - | - |
| 1778016972 | 20° C | 78% | 1012.2 hPa | - | - | - | - |
| 1778016071 | 21.67° C | 71% | 1012.2 hPa | - | - | - | - |
| 1778011567 | 20° C | 78% | 1012.2 hPa | - | - | - | - |
| 1778008884 | 19.44° C | 79% | 1012.1 hPa | - | - | - | - |
| 1778007983 | 19.44° C | 80% | 1012 hPa | - | - | - | - |
* Rain since midnight (hover to see other rain measurements)
** Current wind speed in m/s (hover to see current wind gust speed)